Time;durP1;ratioP1;P1;durP2;ratioP2;P2;SDS_P1;SDS_P2;PMS_P1;PMS_P2;Temp;Humidity;BMP_temperature;BMP_pressure;BME280_temperature;BME280_humidity;BME280_pressure;Samples;Min_cycle;Max_cycle;Signal;HPM_P1;HPM_P2
2023/03/08 00:00:35;;;;;;;14.07;9.20;;;3.40;99.90;;;;;;480241;246;27526;-74
2023/03/08 00:02:36;;;;;;;15.77;9.65;;;3.40;99.90;;;;;;476957;248;27436;-76
2023/03/08 00:04:37;;;;;;;13.10;8.95;;;3.40;99.90;;;;;;480215;246;27468;-74
2023/03/08 00:06:38;;;;;;;19.40;9.80;;;3.40;99.90;;;;;;477065;248;27383;-74
2023/03/08 00:08:40;;;;;;;16.62;10.10;;;3.30;99.90;;;;;;480170;247;27548;-74
2023/03/08 00:10:41;;;;;;;15.15;9.75;;;3.30;99.90;;;;;;477032;248;27848;-80
2023/03/08 00:12:42;;;;;;;14.10;8.93;;;3.30;99.90;;;;;;480161;247;27959;-74
2023/03/08 00:14:43;;;;;;;13.20;9.20;;;3.30;99.90;;;;;;477077;248;27338;-74
2023/03/08 00:16:45;;;;;;;13.68;9.57;;;3.30;99.90;;;;;;480245;246;27411;-73
2023/03/08 00:18:46;;;;;;;16.60;10.18;;;3.20;99.90;;;;;;477081;248;27539;-74
2023/03/08 00:20:47;;;;;;;17.08;9.38;;;3.20;99.90;;;;;;480210;246;27484;-74
2023/03/08 00:22:48;;;;;;;13.43;9.45;;;3.10;99.90;;;;;;477037;248;27371;-74
2023/03/08 00:24:50;;;;;;;14.90;9.48;;;3.00;99.90;;;;;;480276;246;27918;-75
2023/03/08 00:26:51;;;;;;;13.60;9.20;;;2.90;99.90;;;;;;477022;248;27319;-75
2023/03/08 00:28:52;;;;;;;13.48;10.05;;;2.90;99.90;;;;;;480178;247;27941;-74
2023/03/08 00:30:53;;;;;;;18.73;10.05;;;2.80;99.90;;;;;;480223;247;27864;-74
2023/03/08 00:32:55;;;;;;;16.62;9.75;;;2.80;99.90;;;;;;477044;248;27376;-73
2023/03/08 00:34:56;;;;;;;14.18;9.93;;;2.80;99.90;;;;;;480208;246;27462;-74
2023/03/08 00:36:57;;;;;;;17.80;10.73;;;2.80;99.90;;;;;;477066;248;27359;-74
2023/03/08 00:38:58;;;;;;;16.85;10.68;;;2.90;99.90;;;;;;480256;246;27458;-75
2023/03/08 00:41:00;;;;;;;17.52;10.55;;;2.90;99.90;;;;;;477041;248;27339;-74
2023/03/08 00:43:01;;;;;;;17.55;10.85;;;2.90;99.90;;;;;;480260;247;27438;-74
2023/03/08 00:45:02;;;;;;;14.27;10.15;;;3.00;99.90;;;;;;477062;248;28616;-73
2023/03/08 00:47:04;;;;;;;14.77;10.15;;;3.00;99.90;;;;;;480279;246;27871;-74
2023/03/08 00:49:05;;;;;;;16.80;10.10;;;3.00;99.90;;;;;;477044;248;27342;-75
2023/03/08 00:51:06;;;;;;;16.85;10.15;;;3.10;99.90;;;;;;480259;246;27403;-75
2023/03/08 00:53:07;;;;;;;18.05;9.95;;;3.10;99.90;;;;;;477051;248;27359;-75
2023/03/08 00:55:09;;;;;;;15.63;9.85;;;3.10;99.90;;;;;;480255;247;27933;-76
2023/03/08 00:57:10;;;;;;;18.33;10.57;;;3.10;99.90;;;;;;477070;248;27383;-73
2023/03/08 00:59:11;;;;;;;17.27;11.40;;;3.10;99.90;;;;;;480261;246;27439;-74
2023/03/08 01:01:12;;;;;;;14.85;9.98;;;3.10;99.90;;;;;;477026;248;27775;-74
2023/03/08 01:03:14;;;;;;;12.77;9.30;;;3.10;99.90;;;;;;480151;247;27950;-74
2023/03/08 01:05:15;;;;;;;13.27;9.55;;;3.10;99.90;;;;;;480229;247;29090;-75
2023/03/08 01:07:17;;;;;;;18.58;10.90;;;3.10;99.90;;;;;;477074;248;27399;-74
2023/03/08 01:09:17;;;;;;;15.45;9.10;;;3.10;99.90;;;;;;480265;246;27447;-73
2023/03/08 01:11:19;;;;;;;16.80;9.85;;;3.10;99.90;;;;;;477048;248;27458;-73
2023/03/08 01:13:20;;;;;;;16.52;10.00;;;3.10;99.90;;;;;;480240;246;27512;-75
2023/03/08 01:15:21;;;;;;;14.90;10.60;;;3.00;99.90;;;;;;477017;248;27406;-74
2023/03/08 01:17:22;;;;;;;14.45;10.25;;;3.00;99.90;;;;;;480251;246;27463;-74
2023/03/08 01:19:24;;;;;;;15.30;9.85;;;3.00;99.90;;;;;;477041;248;27914;-74
2023/03/08 01:21:25;;;;;;;16.52;10.25;;;3.10;99.90;;;;;;480224;246;27859;-76
2023/03/08 01:23:26;;;;;;;16.08;10.00;;;3.00;99.90;;;;;;476960;248;27355;-75
2023/03/08 01:25:27;;;;;;;16.23;10.55;;;3.00;99.90;;;;;;480167;246;27430;-74
2023/03/08 01:27:29;;;;;;;15.90;10.25;;;3.10;99.90;;;;;;477060;248;27425;-75
2023/03/08 01:29:30;;;;;;;16.77;10.60;;;3.10;99.90;;;;;;480223;247;27466;-74
2023/03/08 01:31:31;;;;;;;15.27;10.10;;;3.10;99.90;;;;;;477034;248;27363;-74
2023/03/08 01:33:32;;;;;;;14.98;10.52;;;3.10;99.90;;;;;;480183;246;27527;-74
2023/03/08 01:35:34;;;;;;;18.45;10.70;;;3.00;99.90;;;;;;477021;248;27931;-74
2023/03/08 01:37:35;;;;;;;15.10;10.05;;;3.10;99.90;;;;;;480240;246;28968;-74
2023/03/08 01:39:36;;;;;;;16.65;10.85;;;3.10;99.90;;;;;;477048;248;27375;-74
2023/03/08 01:41:37;;;;;;;14.87;9.38;;;3.10;99.90;;;;;;480227;246;27391;-73
2023/03/08 01:43:39;;;;;;;17.67;10.57;;;3.00;99.90;;;;;;477009;248;27357;-74
2023/03/08 01:45:40;;;;;;;13.62;9.30;;;3.00;99.90;;;;;;480224;246;27803;-75
2023/03/08 01:47:41;;;;;;;16.48;10.35;;;3.00;99.90;;;;;;477032;248;27324;-74
2023/03/08 01:49:42;;;;;;;15.98;10.57;;;2.90;99.90;;;;;;480228;246;27514;-74
2023/03/08 01:51:44;;;;;;;14.10;9.43;;;2.90;99.90;;;;;;477042;248;27777;-76
2023/03/08 01:53:45;;;;;;;15.30;10.10;;;2.90;99.90;;;;;;480228;246;27915;-75
2023/03/08 01:55:46;;;;;;;13.30;9.43;;;2.90;99.90;;;;;;477019;248;27343;-74
2023/03/08 01:57:47;;;;;;;17.33;9.88;;;2.90;99.90;;;;;;480235;246;27470;-74
2023/03/08 01:59:49;;;;;;;13.93;9.85;;;2.90;99.90;;;;;;477066;248;27367;-74
2023/03/08 02:01:50;;;;;;;13.55;9.30;;;2.90;99.90;;;;;;480202;246;27395;-74
2023/03/08 02:03:51;;;;;;;15.90;9.48;;;3.00;99.90;;;;;;476845;249;27446;-74
2023/03/08 02:05:52;;;;;;;14.45;10.18;;;3.00;99.90;;;;;;480016;247;27526;-76
2023/03/08 02:07:54;;;;;;;15.90;10.73;;;3.00;99.90;;;;;;480270;247;27464;-76
2023/03/08 02:09:55;;;;;;;15.05;9.77;;;3.00;99.90;;;;;;480245;247;28002;-74
2023/03/08 02:11:56;;;;;;;13.00;9.25;;;3.10;99.90;;;;;;477065;248;27866;-74
2023/03/08 02:13:57;;;;;;;15.75;9.93;;;3.10;99.90;;;;;;480237;247;27427;-74
2023/03/08 02:15:59;;;;;;;16.25;10.27;;;3.10;99.90;;;;;;477040;248;27355;-74
2023/03/08 02:18:00;;;;;;;13.05;9.73;;;3.10;99.90;;;;;;477063;247;27423;-75
2023/03/08 02:20:01;;;;;;;15.13;9.75;;;3.10;99.90;;;;;;480226;246;27428;-76
2023/03/08 02:22:03;;;;;;;14.87;9.27;;;3.10;99.90;;;;;;477037;248;27403;-74
2023/03/08 02:24:04;;;;;;;18.95;11.57;;;3.10;99.90;;;;;;480201;246;27519;-74
2023/03/08 02:26:05;;;;;;;16.37;10.48;;;3.10;99.90;;;;;;477028;248;27387;-73
2023/03/08 02:28:06;;;;;;;14.35;9.05;;;3.10;99.90;;;;;;480228;246;27875;-74
2023/03/08 02:30:08;;;;;;;14.98;9.90;;;3.10;99.90;;;;;;477016;248;27933;-74
2023/03/08 02:32:09;;;;;;;12.40;8.70;;;3.10;99.90;;;;;;480225;247;27503;-75
2023/03/08 02:34:10;;;;;;;14.02;9.38;;;3.10;99.90;;;;;;477047;248;27512;-75
2023/03/08 02:36:11;;;;;;;15.35;8.88;;;3.10;99.90;;;;;;480213;246;27392;-74
2023/03/08 02:38:13;;;;;;;16.73;9.65;;;3.10;99.90;;;;;;477006;248;27438;-75
2023/03/08 02:40:14;;;;;;;14.38;9.85;;;3.10;99.90;;;;;;480235;247;27851;-77
2023/03/08 02:42:15;;;;;;;16.62;9.52;;;3.10;99.90;;;;;;477024;248;27328;-74
2023/03/08 02:44:16;;;;;;;16.20;10.13;;;3.10;99.90;;;;;;480238;246;27462;-74
2023/03/08 02:46:18;;;;;;;20.35;9.63;;;3.10;99.90;;;;;;477030;248;27318;-74
2023/03/08 02:48:19;;;;;;;12.70;9.05;;;3.10;99.90;;;;;;480176;246;27506;-75
2023/03/08 02:50:20;;;;;;;20.12;10.25;;;3.10;99.90;;;;;;477053;248;27367;-75
2023/03/08 02:52:21;;;;;;;16.48;10.35;;;3.10;99.90;;;;;;480228;246;27444;-76
2023/03/08 02:54:23;;;;;;;16.37;9.75;;;3.10;99.90;;;;;;476969;248;27355;-75
2023/03/08 02:56:24;;;;;;;14.10;9.35;;;3.00;99.90;;;;;;480216;246;28789;-74
2023/03/08 02:58:25;;;;;;;16.73;10.02;;;3.00;99.90;;;;;;477046;248;27784;-74
2023/03/08 03:00:26;;;;;;;11.95;8.88;;;3.00;99.90;;;;;;480219;246;27500;-74
2023/03/08 03:02:28;;;;;;;15.95;9.48;;;3.00;99.90;;;;;;480231;247;27396;-74
2023/03/08 03:04:29;;;;;;;15.80;9.80;;;3.00;99.90;;;;;;477005;248;27455;-74
2023/03/08 03:06:30;;;;;;;15.10;10.00;;;3.00;99.90;;;;;;480196;246;27478;-74
2023/03/08 03:08:31;;;;;;;16.73;10.48;;;3.00;99.90;;;;;;477029;248;27431;-74
2023/03/08 03:10:33;;;;;;;14.35;10.02;;;3.00;99.90;;;;;;480218;246;27447;-75
2023/03/08 03:12:34;;;;;;;13.62;8.63;;;2.90;99.90;;;;;;477037;248;27816;-74
2023/03/08 03:14:35;;;;;;;14.10;9.70;;;2.90;99.90;;;;;;480225;246;27943;-75
2023/03/08 03:16:36;;;;;;;12.80;8.60;;;2.80;99.90;;;;;;476990;248;27775;-74
2023/03/08 03:18:38;;;;;;;14.68;9.45;;;2.80;99.90;;;;;;480215;246;27406;-75
2023/03/08 03:20:39;;;;;;;15.38;9.30;;;2.70;99.90;;;;;;477063;248;27462;-73
2023/03/08 03:22:40;;;;;;;16.25;9.48;;;2.60;99.90;;;;;;480229;246;27388;-73
2023/03/08 03:24:41;;;;;;;16.37;10.27;;;2.60;99.90;;;;;;477058;248;27382;-75
2023/03/08 03:26:43;;;;;;;15.35;8.80;;;2.50;99.90;;;;;;480212;246;27459;-74
2023/03/08 03:28:44;;;;;;;14.40;10.02;;;2.50;99.90;;;;;;477053;248;27402;-74
2023/03/08 03:30:45;;;;;;;14.07;9.15;;;2.50;99.90;;;;;;480257;246;27936;-73
2023/03/08 03:32:46;;;;;;;17.67;9.85;;;2.50;99.90;;;;;;477048;248;27886;-75
2023/03/08 03:34:48;;;;;;;16.52;9.50;;;2.40;99.90;;;;;;480203;246;28002;-74
2023/03/08 03:36:49;;;;;;;13.82;9.13;;;2.50;99.90;;;;;;477021;248;27430;-74
2023/03/08 03:38:50;;;;;;;11.48;8.48;;;2.50;99.90;;;;;;480234;247;27521;-74
2023/03/08 03:40:51;;;;;;;14.90;9.02;;;2.50;99.90;;;;;;477076;247;27441;-74
2023/03/08 03:42:53;;;;;;;14.02;8.75;;;2.50;99.90;;;;;;480252;246;27483;-74
2023/03/08 03:44:54;;;;;;;14.73;8.98;;;2.60;99.90;;;;;;477049;248;27390;-74
2023/03/08 03:46:55;;;;;;;14.52;8.38;;;2.60;99.90;;;;;;480235;247;27399;-74
2023/03/08 03:48:57;;;;;;;15.05;9.38;;;2.70;99.90;;;;;;477018;248;27358;-76
2023/03/08 03:50:58;;;;;;;14.85;8.77;;;2.70;99.90;;;;;;480264;246;28027;-75
2023/03/08 03:52:59;;;;;;;13.75;9.30;;;2.70;99.90;;;;;;477052;248;27820;-74
2023/03/08 03:55:00;;;;;;;15.15;8.70;;;2.70;99.90;;;;;;480231;246;27945;-74
2023/03/08 03:57:02;;;;;;;14.45;8.30;;;2.70;99.90;;;;;;477069;248;27406;-74
2023/03/08 03:59:03;;;;;;;17.05;9.15;;;2.80;99.90;;;;;;480247;246;27439;-74
2023/03/08 04:01:04;;;;;;;11.07;8.60;;;2.70;99.90;;;;;;477067;248;27450;-74
2023/03/08 04:03:05;;;;;;;11.55;8.18;;;2.70;99.90;;;;;;480255;246;27387;-74
2023/03/08 04:05:07;;;;;;;10.32;7.10;;;2.80;99.90;;;;;;477048;248;27461;-74
2023/03/08 04:07:08;;;;;;;14.30;8.05;;;2.80;99.90;;;;;;480182;246;27395;-74
2023/03/08 04:09:09;;;;;;;13.38;8.63;;;2.80;99.90;;;;;;480289;247;27522;-74
2023/03/08 04:11:10;;;;;;;13.80;8.07;;;2.80;99.90;;;;;;480244;247;28016;-74
2023/03/08 04:13:12;;;;;;;12.80;8.57;;;2.80;99.90;;;;;;477032;248;27808;-74
2023/03/08 04:15:13;;;;;;;14.57;8.70;;;2.80;99.90;;;;;;480217;246;27922;-75
2023/03/08 04:17:14;;;;;;;15.20;8.95;;;2.80;99.90;;;;;;477058;248;27375;-73
2023/03/08 04:19:15;;;;;;;12.13;8.10;;;2.80;99.90;;;;;;480239;246;27454;-75
2023/03/08 04:21:17;;;;;;;13.00;8.55;;;2.80;99.90;;;;;;477070;248;27363;-74
2023/03/08 04:23:18;;;;;;;12.82;8.40;;;2.80;99.90;;;;;;480249;246;27476;-74
2023/03/08 04:25:19;;;;;;;12.43;7.90;;;2.90;99.90;;;;;;477061;248;27367;-73
2023/03/08 04:27:20;;;;;;;11.35;7.62;;;2.90;99.90;;;;;;480203;247;27391;-75
2023/03/08 04:29:22;;;;;;;14.32;8.90;;;2.90;99.90;;;;;;477058;248;27435;-74
2023/03/08 04:31:23;;;;;;;12.85;8.23;;;2.90;99.90;;;;;;477080;247;27838;-74
2023/03/08 04:33:24;;;;;;;13.00;8.63;;;2.90;99.90;;;;;;480243;246;27919;-74
2023/03/08 04:35:25;;;;;;;13.35;8.80;;;2.90;99.90;;;;;;477078;248;27917;-74
2023/03/08 04:37:27;;;;;;;9.75;6.95;;;2.90;99.90;;;;;;480257;246;27514;-74
2023/03/08 04:39:28;;;;;;;11.15;7.97;;;2.90;99.90;;;;;;477062;248;27343;-74
2023/03/08 04:41:29;;;;;;;14.05;9.00;;;2.90;99.90;;;;;;480277;246;27518;-76
2023/03/08 04:43:31;;;;;;;10.85;8.00;;;2.90;99.90;;;;;;477062;248;27323;-73
2023/03/08 04:45:32;;;;;;;12.90;8.35;;;2.90;99.90;;;;;;480255;247;27431;-73
2023/03/08 04:47:33;;;;;;;12.35;7.72;;;3.00;99.90;;;;;;477077;248;27383;-74
2023/03/08 04:49:34;;;;;;;10.18;7.20;;;2.90;99.90;;;;;;480234;246;27436;-74
2023/03/08 04:51:35;;;;;;;17.58;8.80;;;3.00;99.90;;;;;;477073;248;27918;-74
2023/03/08 04:53:38;;;;;;;14.55;8.45;;;3.00;99.90;;;;;;480214;247;27852;-74
2023/03/08 04:55:38;;;;;;;14.55;8.77;;;2.90;99.90;;;;;;476981;249;27910;-73
2023/03/08 04:57:39;;;;;;;13.57;8.95;;;2.90;99.90;;;;;;480161;246;27415;-74
2023/03/08 04:59:40;;;;;;;15.77;9.20;;;2.90;99.90;;;;;;477043;248;27419;-74
2023/03/08 05:01:42;;;;;;;13.25;8.60;;;2.90;99.90;;;;;;480259;247;27522;-76
2023/03/08 05:03:43;;;;;;;10.77;8.02;;;2.90;99.90;;;;;;477049;248;27375;-74
2023/03/08 05:05:44;;;;;;;13.23;8.43;;;2.90;99.90;;;;;;480197;246;27466;-74
2023/03/08 05:07:45;;;;;;;10.80;7.95;;;2.90;99.90;;;;;;477035;248;27320;-73
2023/03/08 05:09:47;;;;;;;12.40;8.60;;;2.90;99.90;;;;;;480236;246;27490;-73
2023/03/08 05:11:48;;;;;;;15.95;9.20;;;3.00;99.90;;;;;;477059;248;27815;-76
2023/03/08 05:13:49;;;;;;;15.48;9.75;;;2.90;99.90;;;;;;480212;246;27976;-74
2023/03/08 05:15:50;;;;;;;13.10;7.68;;;2.90;99.90;;;;;;477027;248;27862;-74
2023/03/08 05:17:52;;;;;;;13.60;9.15;;;3.00;99.90;;;;;;480236;246;27423;-74
2023/03/08 05:19:53;;;;;;;18.83;9.48;;;3.00;99.90;;;;;;476983;249;27320;-74
2023/03/08 05:21:54;;;;;;;13.32;8.38;;;3.00;99.90;;;;;;480231;247;27431;-74
2023/03/08 05:23:55;;;;;;;18.62;10.15;;;3.00;99.90;;;;;;477024;248;27383;-74
2023/03/08 05:25:57;;;;;;;12.60;8.50;;;3.00;99.90;;;;;;480225;246;27435;-74
2023/03/08 05:27:58;;;;;;;15.10;9.75;;;3.00;99.90;;;;;;477021;248;27430;-76
2023/03/08 05:29:59;;;;;;;13.65;8.63;;;3.00;99.90;;;;;;480245;246;27927;-76
2023/03/08 05:32:03;;;;;;;14.45;9.38;;;3.00;99.90;;;;;;477022;248;27996;-74
2023/03/08 05:34:02;;;;;;;14.70;9.25;;;3.00;99.90;;;;;;468466;251;27887;-74
2023/03/08 05:36:03;;;;;;;13.95;8.70;;;3.00;99.90;;;;;;477019;247;27366;-74
2023/03/08 05:38:04;;;;;;;13.93;8.35;;;3.00;99.90;;;;;;477065;247;27419;-74
2023/03/08 05:40:05;;;;;;;11.40;8.20;;;3.00;99.90;;;;;;477083;247;27402;-74
2023/03/08 05:42:07;;;;;;;14.52;9.30;;;3.00;99.90;;;;;;477025;247;27359;-74
2023/03/08 05:44:08;;;;;;;19.00;9.63;;;3.00;99.90;;;;;;477026;247;27339;-74
2023/03/08 05:46:09;;;;;;;19.48;9.23;;;3.00;99.90;;;;;;477007;247;27462;-75
2023/03/08 05:48:10;;;;;;;17.45;9.40;;;3.00;99.90;;;;;;477068;247;27357;-75
2023/03/08 05:50:12;;;;;;;15.10;10.05;;;3.00;99.90;;;;;;477045;247;27773;-74
2023/03/08 05:52:13;;;;;;;14.75;9.27;;;3.00;99.90;;;;;;480233;247;27922;-75
2023/03/08 05:54:14;;;;;;;16.25;9.85;;;3.00;99.90;;;;;;477031;248;27759;-74
2023/03/08 05:56:15;;;;;;;13.02;8.95;;;3.00;99.90;;;;;;480217;247;27432;-74
2023/03/08 05:58:17;;;;;;;16.23;10.30;;;3.00;99.90;;;;;;477054;248;27439;-74
2023/03/08 06:00:18;;;;;;;13.05;8.35;;;3.00;99.90;;;;;;480262;246;27396;-74
2023/03/08 06:02:19;;;;;;;16.50;10.43;;;3.10;99.90;;;;;;477057;248;27497;-74
2023/03/08 06:04:21;;;;;;;12.77;8.70;;;3.00;99.90;;;;;;480206;246;27486;-74
2023/03/08 06:06:22;;;;;;;13.95;9.60;;;3.10;99.90;;;;;;477057;248;27430;-74
2023/03/08 06:08:23;;;;;;;12.35;7.97;;;3.10;99.90;;;;;;480259;246;28066;-74
2023/03/08 06:10:24;;;;;;;14.87;9.45;;;3.00;99.90;;;;;;477071;248;27859;-74
2023/03/08 06:12:26;;;;;;;15.38;10.10;;;3.10;99.90;;;;;;480255;246;29049;-76
2023/03/08 06:14:27;;;;;;;14.63;9.63;;;3.10;99.90;;;;;;477056;248;27316;-75
2023/03/08 06:16:28;;;;;;;17.67;10.60;;;3.10;99.90;;;;;;480270;246;27503;-74
2023/03/08 06:18:29;;;;;;;15.50;9.50;;;3.10;99.90;;;;;;477072;248;27704;-74
2023/03/08 06:20:31;;;;;;;19.80;10.68;;;3.00;99.90;;;;;;480277;246;27392;-74
2023/03/08 06:22:32;;;;;;;16.98;10.02;;;3.10;99.90;;;;;;477037;248;27363;-75
2023/03/08 06:24:33;;;;;;;14.52;9.88;;;3.00;99.90;;;;;;480228;246;27403;-74
2023/03/08 06:26:34;;;;;;;18.17;11.00;;;3.00;99.90;;;;;;477003;248;27823;-74
2023/03/08 06:28:36;;;;;;;15.05;9.65;;;2.90;99.90;;;;;;480262;246;28009;-74
2023/03/08 06:30:37;;;;;;;17.55;9.95;;;2.90;99.90;;;;;;477060;248;27311;-74
2023/03/08 06:32:38;;;;;;;16.60;10.70;;;2.80;99.90;;;;;;480221;246;27427;-75
2023/03/08 06:34:39;;;;;;;14.87;9.18;;;2.80;99.90;;;;;;477021;248;27446;-75
2023/03/08 06:36:41;;;;;;;15.88;10.43;;;2.80;99.90;;;;;;480210;246;27396;-73
2023/03/08 06:38:42;;;;;;;21.73;10.93;;;2.80;99.90;;;;;;477056;248;27370;-73
2023/03/08 06:40:43;;;;;;;16.05;9.93;;;2.60;99.90;;;;;;480235;246;27486;-74
2023/03/08 06:42:44;;;;;;;14.98;10.02;;;2.60;99.90;;;;;;477050;248;27813;-75
2023/03/08 06:44:46;;;;;;;17.73;10.88;;;2.60;99.90;;;;;;480233;246;28654;-74
2023/03/08 06:46:47;;;;;;;14.82;10.32;;;2.70;99.90;;;;;;477061;248;27335;-74
2023/03/08 06:48:48;;;;;;;17.45;11.18;;;2.70;99.90;;;;;;480224;246;27442;-74
2023/03/08 06:50:50;;;;;;;15.88;9.95;;;2.70;99.90;;;;;;477027;248;27462;-75
2023/03/08 06:52:51;;;;;;;16.75;10.60;;;2.70;99.90;;;;;;480221;246;27430;-75
2023/03/08 06:54:52;;;;;;;20.73;10.85;;;2.70;99.90;;;;;;477007;248;27848;-76
2023/03/08 06:56:53;;;;;;;15.13;9.90;;;2.50;99.90;;;;;;480259;246;27524;-75
2023/03/08 06:58:54;;;;;;;18.42;11.85;;;2.50;99.90;;;;;;477036;248;27816;-74
2023/03/08 07:00:58;;;;;;;16.62;11.15;;;2.40;99.90;;;;;;480209;246;28003;-73
2023/03/08 07:02:57;;;;;;;22.65;11.57;;;2.40;99.90;;;;;;476934;248;27350;-75
2023/03/08 07:04:58;;;;;;;20.52;12.55;;;2.30;99.90;;;;;;480262;246;27453;-74
2023/03/08 07:06:59;;;;;;;22.65;12.68;;;2.20;99.90;;;;;;477049;248;27373;-75
2023/03/08 07:09:01;;;;;;;18.87;11.52;;;2.10;99.90;;;;;;480236;246;27514;-73
2023/03/08 07:11:02;;;;;;;20.20;11.98;;;2.10;99.90;;;;;;477013;248;27402;-74
2023/03/08 07:13:03;;;;;;;17.75;11.50;;;2.10;99.90;;;;;;480220;246;27430;-75
2023/03/08 07:15:05;;;;;;;24.85;14.15;;;2.10;99.90;;;;;;477059;248;27844;-74
2023/03/08 07:17:06;;;;;;;24.50;12.63;;;2.10;99.90;;;;;;480225;246;27949;-75
2023/03/08 07:19:07;;;;;;;24.42;13.23;;;1.90;99.90;;;;;;477032;248;27343;-75
2023/03/08 07:21:09;;;;;;;23.55;12.82;;;1.80;99.90;;;;;;480136;246;27395;-74
2023/03/08 07:23:09;;;;;;;19.60;11.20;;;1.70;99.90;;;;;;476991;248;27443;-74
2023/03/08 07:25:11;;;;;;;17.45;11.18;;;1.80;99.90;;;;;;480195;246;27462;-75
2023/03/08 07:27:12;;;;;;;18.77;12.63;;;1.90;99.90;;;;;;476982;248;27311;-74
2023/03/08 07:29:13;;;;;;;19.42;11.57;;;2.00;99.90;;;;;;480184;246;27466;-75
2023/03/08 07:31:15;;;;;;;20.15;13.57;;;2.00;99.90;;;;;;476991;248;27776;-74
2023/03/08 07:33:16;;;;;;;17.40;11.05;;;1.90;99.90;;;;;;480193;246;27866;-76
2023/03/08 07:35:17;;;;;;;22.95;12.15;;;1.90;99.90;;;;;;480198;247;27463;-75
2023/03/08 07:37:18;;;;;;;17.90;10.52;;;2.00;99.90;;;;;;477042;248;27308;-74
2023/03/08 07:39:20;;;;;;;19.67;10.93;;;1.90;99.90;;;;;;480230;246;27434;-74
2023/03/08 07:41:21;;;;;;;17.58;11.40;;;2.00;99.90;;;;;;477042;248;27409;-74
2023/03/08 07:43:22;;;;;;;20.75;11.23;;;2.10;99.90;;;;;;480243;246;27498;-75
2023/03/08 07:45:23;;;;;;;19.52;12.48;;;2.20;99.90;;;;;;477059;248;27941;-76
2023/03/08 07:47:25;;;;;;;19.87;12.18;;;2.10;99.90;;;;;;480258;246;28004;-75
2023/03/08 07:49:26;;;;;;;17.10;10.60;;;2.10;99.90;;;;;;477048;248;27466;-74
2023/03/08 07:51:27;;;;;;;19.00;12.02;;;2.10;99.90;;;;;;480234;247;27395;-75
2023/03/08 07:53:28;;;;;;;16.45;11.55;;;2.10;99.90;;;;;;477063;247;27355;-75
2023/03/08 07:55:30;;;;;;;17.20;12.13;;;2.10;99.90;;;;;;480278;243;27432;-76
2023/03/08 07:57:31;;;;;;;18.33;11.55;;;2.20;99.90;;;;;;477098;248;27441;-74
2023/03/08 07:59:32;;;;;;;18.52;12.20;;;2.10;99.90;;;;;;480240;246;27438;-74
2023/03/08 08:01:33;;;;;;;17.58;11.88;;;2.10;99.90;;;;;;477091;248;27754;-75
2023/03/08 08:03:36;;;;;;;16.35;11.07;;;2.10;99.90;;;;;;480245;247;28004;-74
2023/03/08 08:05:36;;;;;;;18.75;12.07;;;2.20;99.90;;;;;;477041;248;27358;-74
2023/03/08 08:07:37;;;;;;;18.60;12.32;;;2.10;99.90;;;;;;480233;246;27491;-74
2023/03/08 08:09:38;;;;;;;15.40;10.27;;;2.10;99.90;;;;;;477031;248;27458;-74
2023/03/08 08:11:40;;;;;;;16.70;11.57;;;2.10;99.90;;;;;;480205;246;27438;-74
2023/03/08 08:13:41;;;;;;;18.45;12.00;;;2.20;99.90;;;;;;477060;248;27437;-73
2023/03/08 08:15:42;;;;;;;16.27;11.38;;;2.30;99.90;;;;;;480239;246;27895;-75
2023/03/08 08:17:43;;;;;;;14.05;10.00;;;2.30;99.90;;;;;;477070;248;27794;-74
2023/03/08 08:19:45;;;;;;;13.57;9.25;;;2.40;99.90;;;;;;480235;247;29255;-74
2023/03/08 08:21:46;;;;;;;14.93;10.80;;;2.40;99.90;;;;;;477051;248;27309;-74
2023/03/08 08:23:47;;;;;;;14.60;9.60;;;2.50;99.90;;;;;;480218;246;27510;-74
2023/03/08 08:25:49;;;;;;;11.65;8.63;;;2.40;99.90;;;;;;477063;248;27342;-74
2023/03/08 08:27:50;;;;;;;15.10;9.80;;;2.40;99.90;;;;;;480259;247;27533;-74
2023/03/08 08:29:51;;;;;;;13.50;9.63;;;2.50;99.90;;;;;;477046;248;27410;-73
2023/03/08 08:31:52;;;;;;;12.15;9.40;;;2.40;99.90;;;;;;480240;246;27525;-74
2023/03/08 08:33:54;;;;;;;12.23;8.73;;;2.50;99.90;;;;;;477065;248;27823;-74
2023/03/08 08:35:55;;;;;;;11.40;8.32;;;2.40;99.90;;;;;;480274;246;28775;-74
2023/03/08 08:37:56;;;;;;;11.45;8.40;;;2.50;99.90;;;;;;477049;248;27958;-75
2023/03/08 08:39:57;;;;;;;9.70;8.10;;;2.70;99.90;;;;;;480230;246;27458;-74
2023/03/08 08:41:58;;;;;;;10.55;7.85;;;2.80;99.90;;;;;;477058;248;27304;-75
2023/03/08 08:44:00;;;;;;;8.18;6.90;;;2.80;99.90;;;;;;480257;246;27504;-74
2023/03/08 08:46:01;;;;;;;9.60;6.90;;;2.80;99.90;;;;;;477063;248;27439;-75
2023/03/08 08:48:02;;;;;;;8.38;6.90;;;2.70;99.90;;;;;;480233;246;27398;-77
2023/03/08 08:50:03;;;;;;;8.25;6.35;;;2.60;99.90;;;;;;477017;248;27394;-77
2023/03/08 08:52:05;;;;;;;7.18;5.80;;;2.70;99.90;;;;;;480236;246;27478;-74
2023/03/08 08:54:06;;;;;;;9.15;6.72;;;2.70;99.90;;;;;;477020;248;27355;-73
2023/03/08 08:56:07;;;;;;;8.52;6.90;;;2.50;99.90;;;;;;480281;246;27439;-74
2023/03/08 08:58:08;;;;;;;6.47;5.80;;;2.60;99.90;;;;;;477015;248;27795;-74
2023/03/08 09:00:10;;;;;;;6.75;5.45;;;2.70;99.90;;;;;;480216;246;28033;-74
2023/03/08 09:02:11;;;;;;;6.40;5.80;;;2.70;99.90;;;;;;477039;248;27878;-74
2023/03/08 09:04:12;;;;;;;6.68;5.82;;;2.80;99.90;;;;;;480221;246;27424;-74
2023/03/08 09:06:13;;;;;;;6.55;5.70;;;2.80;99.90;;;;;;477072;248;27444;-74
2023/03/08 09:08:15;;;;;;;6.62;5.65;;;2.90;99.90;;;;;;480214;246;27467;-74
2023/03/08 09:10:16;;;;;;;6.80;5.55;;;2.70;99.90;;;;;;477006;248;27362;-75
2023/03/08 09:12:18;;;;;;;7.80;7.00;;;2.50;99.90;;;;;;480253;247;27404;-75
2023/03/08 09:14:19;;;;;;;7.30;5.80;;;2.50;99.90;;;;;;477022;249;27375;-73
2023/03/08 09:16:20;;;;;;;6.75;5.80;;;2.60;99.90;;;;;;480240;246;27787;-75
2023/03/08 09:18:21;;;;;;;6.75;5.62;;;2.50;99.90;;;;;;477092;248;27339;-74
2023/03/08 09:20:22;;;;;;;7.12;6.43;;;2.60;99.90;;;;;;480249;246;27534;-75
2023/03/08 09:22:24;;;;;;;6.40;5.30;;;2.80;99.90;;;;;;477039;248;27781;-74
2023/03/08 09:24:25;;;;;;;6.20;5.60;;;2.80;99.90;;;;;;480224;246;27922;-75
2023/03/08 09:26:26;;;;;;;6.22;5.60;;;3.00;99.90;;;;;;477024;248;27996;-75
2023/03/08 09:28:27;;;;;;;7.00;5.85;;;3.10;99.90;;;;;;480231;247;27392;-74
2023/03/08 09:30:29;;;;;;;7.47;6.70;;;2.80;99.90;;;;;;476684;248;27379;-74
2023/03/08 09:32:30;;;;;;;6.50;5.47;;;2.90;99.90;;;;;;479426;246;27454;-74
2023/03/08 09:34:31;;;;;;;7.43;6.35;;;2.90;99.90;;;;;;476814;248;27356;-74
2023/03/08 09:36:32;;;;;;;5.93;5.25;;;2.90;99.90;;;;;;480221;246;27886;-74
2023/03/08 09:38:34;;;;;;;7.55;5.85;;;2.90;99.90;;;;;;477073;248;27427;-79
2023/03/08 09:40:35;;;;;;;7.28;6.10;;;3.00;99.90;;;;;;480224;247;27469;-76
2023/03/08 09:42:37;;;;;;;7.05;5.65;;;3.00;99.90;;;;;;477041;248;27320;-76
2023/03/08 09:44:44;;;;;;;8.55;7.05;;;3.00;99.90;;;;;;480192;246;27951;-75
2023/03/08 09:46:41;;;;;;;8.55;7.00;;;3.10;99.90;;;;;;479827;247;28082;-74
2023/03/08 09:48:43;;;;;;;5.97;5.37;;;3.00;99.90;;;;;;477046;248;27768;-75
2023/03/08 09:50:44;;;;;;;6.95;5.85;;;2.90;99.90;;;;;;480230;246;27915;-75
2023/03/08 09:52:47;;;;;;;8.98;5.87;;;3.00;99.90;;;;;;477019;249;27431;-75
2023/03/08 09:54:46;;;;;;;6.45;5.10;;;3.00;99.90;;;;;;480143;246;27400;-75
2023/03/08 09:56:47;;;;;;;6.18;5.55;;;3.00;99.90;;;;;;477046;248;27382;-75
2023/03/08 09:58:49;;;;;;;8.15;6.50;;;3.20;99.90;;;;;;480196;246;27479;-74
2023/03/08 10:00:50;;;;;;;6.87;6.18;;;3.20;99.90;;;;;;477049;248;27383;-75
2023/03/08 10:02:51;;;;;;;6.87;6.00;;;3.20;99.90;;;;;;480182;246;27439;-73
2023/03/08 10:04:52;;;;;;;7.90;6.22;;;3.30;99.90;;;;;;477049;248;27332;-75
2023/03/08 10:06:54;;;;;;;6.95;6.00;;;3.30;99.90;;;;;;480201;246;27426;-74
2023/03/08 10:08:55;;;;;;;5.95;5.20;;;3.40;99.90;;;;;;477054;248;27874;-74
2023/03/08 10:10:58;;;;;;;6.10;5.45;;;3.50;99.90;;;;;;480223;246;27980;-74
2023/03/08 10:12:57;;;;;;;6.10;5.18;;;3.50;99.90;;;;;;476991;249;27889;-76
2023/03/08 10:14:59;;;;;;;5.40;4.80;;;3.50;99.90;;;;;;480235;246;27399;-76
2023/03/08 10:17:00;;;;;;;6.15;4.95;;;3.60;99.90;;;;;;477053;248;27472;-74
2023/03/08 10:19:01;;;;;;;6.03;4.90;;;3.60;99.90;;;;;;480227;246;27395;-74
2023/03/08 10:21:02;;;;;;;5.43;4.68;;;3.60;99.90;;;;;;477042;248;27351;-74
2023/03/08 10:23:04;;;;;;;6.10;5.47;;;3.60;99.90;;;;;;480201;246;27786;-75
2023/03/08 10:25:05;;;;;;;6.30;5.20;;;3.60;99.90;;;;;;477063;248;27387;-74
2023/03/08 10:27:06;;;;;;;6.32;5.40;;;3.60;99.90;;;;;;480268;246;27443;-75
2023/03/08 10:29:08;;;;;;;5.37;4.65;;;3.60;99.90;;;;;;477080;248;27343;-75